This is the latest recevied weather packets stored in our database for station/object LA9UTA-13. If no packets are shown the sender has not sent any weather packets the latest 10 day(s).
| Time | Temp. | Humidity | Pressure | Rain* | Wind** | Luminosity | Snow |
|---|---|---|---|---|---|---|---|
| 1777531081 | 13.33° C | 54% | 1028.5 hPa | 0 mm | - | 44 W/m² | - |
| 1777529881 | 11.67° C | 61% | 1028.6 hPa | 0 mm | - | 171 W/m² | - |
| 1777528682 | 11.67° C | 60% | 1029.7 hPa | 0 mm | - | 112 W/m² | - |
| 1777527482 | 8.33° C | 65% | 1028.9 hPa | 0 mm | - | 90 W/m² | - |
| 1777526282 | 10° C | 61% | 1028.8 hPa | 0 mm | - | 78 W/m² | - |
| 1777525082 | 8.89° C | 65% | 1028.8 hPa | 0 mm | - | 61 W/m² | - |
| 1777523882 | 7.78° C | 70% | 1029 hPa | 0 mm | - | 44 W/m² | - |
| 1777522682 | 5° C | 77% | 1029.2 hPa | 0 mm | - | 30 W/m² | - |
| 1777521481 | 5.56° C | 74% | 1029.2 hPa | 0 mm | - | 16 W/m² | - |
| 1777520282 | 3.89° C | 80% | 1029.3 hPa | 0 mm | - | 6 W/m² | - |
| 1777517881 | 5° C | 75% | 1029.2 hPa | 0 mm | - | 0 W/m² | - |
| 1777516681 | 6.11° C | 72% | 1029.1 hPa | 0 mm | - | 0 W/m² | - |
| 1777515482 | 5.56° C | 74% | 1029.2 hPa | 0 mm | - | 0 W/m² | - |
| 1777514282 | 6.11° C | 73% | 1029.2 hPa | 0 mm | - | 0 W/m² | - |
| 1777513081 | 5.56° C | 76% | 1029.2 hPa | 0 mm | - | 0 W/m² | - |
| 1777511881 | 5.56° C | 75% | 1029.2 hPa | 0 mm | - | 0 W/m² | - |
| 1777510682 | 6.11° C | 74% | 1029.1 hPa | 0 mm | - | 0 W/m² | - |
| 1777509481 | 6.67° C | 74% | 1029.1 hPa | 0 mm | - | 0 W/m² | - |
| 1777508281 | 6.67° C | 75% | 1029.1 hPa | 0 mm | - | 0 W/m² | - |
| 1777507081 | 6.67° C | 75% | 1029.1 hPa | 0 mm | - | 0 W/m² | - |
| 1777505882 | 6.11° C | 78% | 1029.1 hPa | 0 mm | - | 0 W/m² | - |
| 1777504681 | 6.11° C | 76% | 1029.1 hPa | 0 mm | - | 0 W/m² | - |
| 1777503482 | 5.56° C | 80% | 1029.2 hPa | 0 mm | - | 0 W/m² | - |
| 1777501082 | 5.56° C | 80% | 1029.2 hPa | 0 mm | - | 0 W/m² | - |
| 1777499881 | 5.56° C | 79% | 1029.2 hPa | 0 mm | - | 0 W/m² | - |
* Rain latest hour (hover to see other rain measurements)
** Current wind speed in m/s (hover to see current wind gust speed)